Main page
METAR-TAF:

METAR-TAF

Airports :

Belgrade, Serbia

Belgrade Nikola Tesla Airport

latitude: 44-49N, longitude: 020-17E, elevation: 96 m

Current weather observation

The report was made 37 minutes ago, at 07:30 UTC
Wind 1 kt from the East
Temperature -1°C
Humidity 86%
Pressure 1031 hPa
Visibility: 2000 m
Shallow fog, mist

METAR: LYBE 040730Z 10001KT 2000 MIFG BR NSC M01/M03 Q1031 BECMG 5000

Time: 09:07 (08:07 UTC)

Forecast

The report was made 3 hours and 7 minutes ago, at 05:00 UTC
Forecast valid from 04 at 06 UTC to 05 at 06 UTC
Wind 2 kt from variable directions
Visibility: 5000 m
mist
Temporary
from 04 at 06 UTC to 04 at 08 UTC
Visibility: 1500 m
Probability 30%
from 05 at 06 UTC to 05 at 07 UTC
Visibility: 0500 m
freezing fog
Becoming
from 04 at 08 UTC to 04 at 10 UTC
Visibility 10 km or more

TAF: LYBE 040500Z 0406/0506 VRB02KT 5000 BR NSC TX05/0413Z TNM05/0505Z TEMPO 0406/0408 1500 PROB30 0506/0507 0500 FZFG BECMG 0408/0410 9999 NSW

Weather observations and forecasts of more than 4000 airports (METAR and TAF reports).

The available stations are represented by yellow and red dots on the map.

Hover mouse over dot to see the name of the station.

Then click to see weather observations and forecasts.

To change the map : click on the green buttons with a black cross to zoom in, on the green button with a dash to zoom out, or on the green arrows for adjacent maps.


METAR-TAF: